TAF Text Data
IDs:
Format:
Raw Decoded Include METAR

Data at: 1251 UTC 07 Jul 2020

Region: TOP
KATL 071135Z 0712/0818 01006KT 6SM BR VCSH OVC007
  TEMPO 0712/0714 4SM BR BKN004
  FM071600 05005KT 6SM -SHRA OVC010
  FM071800 03005KT 6SM SHRA SCT025 BKN035
  TEMPO 0719/0723 VRB15G25KT 2SM TSRA BKN025CB
  FM080200 06004KT P6SM VCSH SCT020 BKN035
  FM080900 02005KT P6SM BKN008
  FM081500 35005KT P6SM VCSH BKN015


KBOS 071127Z 0712/0818 13008KT P6SM BKN060
  FM071800 13012G18KT P6SM SCT200
  FM072100 13013KT P6SM SCT200
  FM080600 18008KT P6SM OVC020
  FM080800 18008KT P6SM OVC008
  FM081400 20010G18KT P6SM BKN025
  FM081700 21012G21KT P6SM BKN040


KBWI 071129Z 0712/0818 VRB03KT P6SM BKN015
  FM071500 18008KT P6SM BKN025
  FM071900 18010KT P6SM VCTS SCT050CB SCT130
  FM072300 18008KT P6SM SCT050 SCT130
  FM080200 VRB03KT P6SM SCT130


KCLE 071123Z 0712/0818 22005KT P6SM SCT110
  FM071700 29008KT P6SM VCTS SCT060CB
  TEMPO 0718/0720 VRB10G20KT 4SM -TSRA BKN050CB
  FM072000 30007KT P6SM SCT060
  FM080100 20005KT P6SM SCT120
  FM081400 31006KT P6SM SCT060


KCLT 071134Z 0712/0818 08005KT P6SM BKN015 OVC025
  FM071500 10004KT 6SM -SHRA OVC013
  TEMPO 0715/0718 3SM RA BR SCT007 OVC011
  FM072000 07006KT P6SM -SHRA OVC022
  PROB30 0721/0801 4SM TSRA BR OVC007CB
  FM080500 05005KT P6SM VCSH BKN007


KCVG 071127Z 0712/0818 VRB03KT P6SM SCT250
  FM071500 21004KT P6SM FEW040
  FM071900 22004KT P6SM VCTS SCT040CB
  FM080000 00000KT P6SM SCT200
  FM081500 05003KT P6SM FEW040


KDCA 071129Z 0712/0818 17006KT P6SM BKN015
  FM071400 16008KT P6SM SCT025
  FM071900 16010KT P6SM VCTS SCT050CB SCT130
  FM072300 16008KT P6SM SCT050 SCT130
  FM080200 16005KT P6SM SCT130


KDEN 071128Z 0712/0818 20012KT P6SM FEW140
  FM071500 23010KT P6SM SCT130 SCT200
  FM071900 08008KT P6SM SCT130 BKN160
  TEMPO 0721/0801 VRB20G30KT
  FM080100 16014G24KT P6SM SCT130 BKN160
  FM080500 20012KT P6SM FEW150


KDFW 071233Z 0713/0818 11004KT P6SM SCT015 BKN080
  TEMPO 0713/0716 BKN008 BKN015
  FM071700 15005KT P6SM VCTS BKN045CB
  FM080000 15007KT P6SM BKN080


KDTW 071132Z 0712/0818 24004KT P6SM SKC
  FM071700 27007KT P6SM SCT070
  TEMPO 0721/0724 6SM -SHRA BKN070
  FM080100 27003KT P6SM FEW070
  FM080900 VRB03KT P6SM SCT100


KEWR 071125Z 0712/0818 11005KT P6SM SCT012 BKN040
  TEMPO 0712/0714 BKN012
  FM071700 12007KT P6SM VCSH BKN050
  FM080200 18006KT P6SM SCT010 BKN040
  FM081500 21009KT P6SM BKN040


KFLL 071120Z 0712/0818 VRB05KT P6SM VCSH SCT030 BKN100 BKN250
  FM071600 12011KT P6SM VCTS SCT035CB SCT100
  FM080100 VRB05KT P6SM SCT030 BKN100
  FM081600 12010KT P6SM VCTS SCT035CB SCT100


KIAD 071129Z 0712/0818 VRB03KT P6SM SCT008 BKN015
  FM071500 18008KT P6SM SCT050
  FM071900 18010KT P6SM VCTS SCT050CB SCT130
  FM072300 18008KT P6SM SCT050 SCT130
  FM080200 VRB03KT P6SM SCT130


KIAH 071121Z 0712/0818 20005KT P6SM VCSH SCT012
  TEMPO 0712/0714 BKN012
  FM071600 19007KT P6SM VCTS BKN035CB
  FM072300 17008KT P6SM SCT250
  FM081500 19010KT P6SM SCT025


KJFK 071125Z 0712/0818 10005KT P6SM SCT015 BKN025
  TEMPO 0712/0714 BKN015
  FM071500 14008KT P6SM SCT015 BKN040
  FM071700 14009KT P6SM BKN050
  FM080200 18007KT P6SM SCT010 BKN040
  FM081500 19010KT P6SM BKN040


KLAS 071129Z 0712/0818 21011KT P6SM SKC
  FM071400 19015G25KT P6SM SKC
  FM072000 21020G29KT P6SM SKC
  FM080300 23012KT P6SM SKC
  FM081700 20014G21KT P6SM SKC


KLAX 071151Z 0712/0818 VRB03KT P6SM SKC
  FM071300 VRB03KT 6SM BR BKN009
  FM071600 25006KT P6SM SKC
  FM072000 25012KT P6SM SKC
  FM080300 25006KT P6SM SKC
  FM080900 VRB03KT 5SM BR BKN009
  FM081600 VRB03KT 6SM HZ FEW010


KLGA 071125Z 0712/0818 10005KT P6SM SCT025 BKN040
  TEMPO 0712/0714 BKN025
  FM071500 11009KT P6SM BKN040
  FM071700 12010KT P6SM BKN050
  FM080200 18007KT P6SM SCT010 BKN040
  FM081500 19010KT P6SM BKN040


KMCO 071120Z 0712/0818 18005KT P6SM FEW250
  FM071500 22007KT P6SM FEW030 SCT250
  FM071700 21009KT P6SM VCTS SCT035CB BKN060
  TEMPO 0718/0720 VRB15G25KT 2SM TSRA BKN025CB BKN050
  FM072200 22007KT P6SM VCSH SCT035 SCT120 BKN250
  FM080200 22005KT P6SM FEW120 SCT250


KMDW 071136Z 0712/0818 27006KT P6SM SCT060
  FM072000 08008KT P6SM VCTS SCT060CB
  FM080000 14005KT P6SM FEW060 SCT250


KMEM 071130Z 0712/0818 00000KT P6SM FEW150 FEW250
  FM071500 36004KT P6SM SCT250
  FM071800 02003KT P6SM VCSH SCT050 BKN250
  FM080100 19005KT P6SM SCT250
  FM080600 23005KT P6SM SCT250


KMIA 071120Z 0712/0818 VRB05KT P6SM VCSH SCT030 BKN100 BKN250
  FM071600 12010KT P6SM VCTS SCT035CB SCT100
  FM080100 VRB05KT P6SM SCT030 BKN100
  FM081600 12011KT P6SM VCTS SCT035CB SCT100


KMSP 071122Z 0712/0818 10003KT P6SM FEW035 SCT200
  FM071800 13003KT P6SM FEW060 SCT250
  FM081100 15006KT P6SM FEW250
  FM081600 18009KT P6SM FEW200


KORD 071136Z 0712/0818 28006KT P6SM SCT060
  FM072000 07008KT P6SM VCTS SCT060CB
  FM080000 15005KT P6SM FEW060 SCT250


KPDX 071135Z 0712/0812 32005KT P6SM VCSH SCT025 OVC045
  TEMPO 0712/0716 5SM -DZ BKN025 OVC045
  FM071800 23007KT P6SM -SHRA SCT030 OVC050
  FM080300 30006KT P6SM VCSH SCT030 BKN050


KPHL 071140Z 0712/0818 VRB04KT P6SM FEW025 SCT140
  TEMPO 0712/0714 BKN025
  FM071500 15006KT P6SM BKN050
  FM071900 18008KT P6SM VCTS BKN050CB
  FM080100 VRB03KT P6SM BKN090
  FM081100 VRB04KT P6SM BKN035


KPHX 071122Z 0712/0818 10006KT P6SM SKC
  FM071700 27006KT P6SM FEW150
  FM072300 28009G17KT P6SM FEW150
  FM080400 29006KT P6SM SKC
  FM081100 10005KT P6SM SKC


KPIT 071125Z 0712/0818 17003KT P6SM SKC
  FM071700 22005KT P6SM SCT050
  TEMPO 0719/0723 P6SM -TSRA BKN050CB


KSAN 071249Z 0713/0818 19005KT 6SM BR OVC009
  FM071600 19004KT P6SM BKN010
  FM071700 19005KT P6SM SCT012
  FM071900 21009KT P6SM SKC
  FM080200 19004KT P6SM SCT012
  FM080600 VRB04KT P6SM OVC012
  FM081600 19004KT P6SM SCT014


KSEA 071135Z 0712/0818 19008KT P6SM SCT022 OVC040
  TEMPO 0712/0715 BKN022 OVC040
  FM071500 19008KT P6SM VCSH OVC022
  FM072100 22008KT P6SM VCSH BKN035 BKN050
  FM081100 19008KT P6SM OVC022


KSFO 071137Z 0712/0818 27014KT P6SM FEW012
  FM072100 28022G28KT P6SM SKC
  FM080500 28015KT P6SM FEW012
  FM080900 27010KT P6SM BKN012
  FM081600 27006KT P6SM SCT015


KSLC 071120Z 0712/0818 17016KT P6SM FEW150
  FM071600 19015G22KT P6SM FEW150
  FM071900 32012G23KT P6SM FEW150
  FM080100 33010KT P6SM SKC


KSTL 071140Z 0712/0818 VRB03KT P6SM FEW250
  FM072300 VRB04KT P6SM SCT050
  FM080600 VRB03KT P6SM SCT250


KTPA 071138Z 0712/0818 VRB04KT P6SM VCSH SCT025 BKN250
  FM071400 21006KT P6SM VCSH SCT020 BKN250
  FM071600 24009KT P6SM VCTS BKN035CB
  FM072100 26010KT P6SM VCSH SCT040 BKN250
  FM080100 25007KT P6SM FEW025 BKN250
  FM081000 VRB04KT P6SM FEW025 BKN250
  FM081400 23006KT P6SM VCSH SCT020 BKN250